sensor_id;sensor_type;location;lat;lon;timestamp;pressure;altitude;pressure_sealevel;temperature;humidity
73103;BME280;61294;65.988;29.172;2022-09-27T00:02:05;98273.50;;;5.33;98.19
73103;BME280;61294;65.988;29.172;2022-09-27T00:04:30;98280.50;;;5.37;98.09
73103;BME280;61294;65.988;29.172;2022-09-27T00:06:56;98272.63;;;5.31;98.24
73103;BME280;61294;65.988;29.172;2022-09-27T00:09:22;98280.47;;;5.34;98.42
73103;BME280;61294;65.988;29.172;2022-09-27T00:11:48;98278.72;;;5.33;98.43
73103;BME280;61294;65.988;29.172;2022-09-27T00:14:15;98273.41;;;5.21;98.65
73103;BME280;61294;65.988;29.172;2022-09-27T00:16:42;98281.25;;;5.24;98.89
73103;BME280;61294;65.988;29.172;2022-09-27T00:19:14;98281.28;;;5.27;98.55
73103;BME280;61294;65.988;29.172;2022-09-27T00:21:41;98302.28;;;5.34;98.81
73103;BME280;61294;65.988;29.172;2022-09-27T00:24:19;98281.25;;;5.22;98.81
73103;BME280;61294;65.988;29.172;2022-09-27T00:26:45;98278.66;;;5.24;99.07
73103;BME280;61294;65.988;29.172;2022-09-27T00:29:11;98281.31;;;5.31;98.80
73103;BME280;61294;65.988;29.172;2022-09-27T00:31:38;98280.44;;;5.29;99.17
73103;BME280;61294;65.988;29.172;2022-09-27T00:34:05;98277.84;;;5.31;98.67
73103;BME280;61294;65.988;29.172;2022-09-27T00:36:32;98283.91;;;5.28;99.42
73103;BME280;61294;65.988;29.172;2022-09-27T00:38:59;98283.91;;;5.28;98.91
73103;BME280;61294;65.988;29.172;2022-09-27T00:41:28;98283.91;;;5.30;99.04
73103;BME280;61294;65.988;29.172;2022-09-27T00:43:57;98284.75;;;5.26;99.16
73103;BME280;61294;65.988;29.172;2022-09-27T00:46:43;98283.03;;;5.25;99.30
73103;BME280;61294;65.988;29.172;2022-09-27T00:49:28;98281.25;;;5.22;99.40
73103;BME280;61294;65.988;29.172;2022-09-27T00:52:01;98275.19;;;5.26;99.15
73103;BME280;61294;65.988;29.172;2022-09-27T00:54:29;98284.78;;;5.27;99.59
73103;BME280;61294;65.988;29.172;2022-09-27T00:56:57;98285.66;;;5.29;99.19
73103;BME280;61294;65.988;29.172;2022-09-27T00:59:47;98274.28;;;5.26;99.19
73103;BME280;61294;65.988;29.172;2022-09-27T01:02:14;98276.91;;;5.24;99.11
73103;BME280;61294;65.988;29.172;2022-09-27T01:04:41;98278.66;;;5.25;99.63
73103;BME280;61294;65.988;29.172;2022-09-27T01:07:08;98280.44;;;5.28;99.22
73103;BME280;61294;65.988;29.172;2022-09-27T01:09:34;98284.81;;;5.29;99.78
73103;BME280;61294;65.988;29.172;2022-09-27T01:23:45;98291.75;;;5.30;99.84
73103;BME280;61294;65.988;29.172;2022-09-27T01:27:07;98275.06;;;5.17;99.67
73103;BME280;61294;65.988;29.172;2022-09-27T01:32:35;98280.41;;;5.23;100.00
73103;BME280;61294;65.988;29.172;2022-09-27T01:35:19;98294.38;;;5.30;99.67
73103;BME280;61294;65.988;29.172;2022-09-27T01:44:15;98303.06;;;5.27;99.78
73103;BME280;61294;65.988;29.172;2022-09-27T01:46:27;98298.69;;;5.25;99.94
73103;BME280;61294;65.988;29.172;2022-09-27T01:48:56;98277.69;;;5.17;99.80
73103;BME280;61294;65.988;29.172;2022-09-27T01:51:54;98284.69;;;5.18;100.00
73103;BME280;61294;65.988;29.172;2022-09-27T01:54:26;98275.91;;;5.13;100.00
73103;BME280;61294;65.988;29.172;2022-09-27T01:56:56;98289.09;;;5.24;100.00
73103;BME280;61294;65.988;29.172;2022-09-27T01:59:34;98296.91;;;5.22;100.00
73103;BME280;61294;65.988;29.172;2022-09-27T02:02:07;98297.75;;;5.21;100.00
73103;BME280;61294;65.988;29.172;2022-09-27T02:04:34;98280.22;;;5.09;100.00
73103;BME280;61294;65.988;29.172;2022-09-27T02:07:29;98281.09;;;5.11;100.00
73103;BME280;61294;65.988;29.172;2022-09-27T02:10:08;98302.97;;;5.19;100.00
73103;BME280;61294;65.988;29.172;2022-09-27T02:12:39;98313.47;;;5.24;99.99
73103;BME280;61294;65.988;29.172;2022-09-27T02:15:10;98288.97;;;5.14;99.95
73103;BME280;61294;65.988;29.172;2022-09-27T02:17:43;98306.50;;;5.23;99.97
73103;BME280;61294;65.988;29.172;2022-09-27T02:20:45;98299.50;;;5.21;99.94
73103;BME280;61294;65.988;29.172;2022-09-27T02:23:12;98298.59;;;5.18;99.92
73103;BME280;61294;65.988;29.172;2022-09-27T02:25:49;98301.22;;;5.20;100.00
73103;BME280;61294;65.988;29.172;2022-09-27T02:28:24;98296.91;;;5.21;100.00
73103;BME280;61294;65.988;29.172;2022-09-27T02:30:53;98264.44;;;5.00;99.94
73103;BME280;61294;65.988;29.172;2022-09-27T02:33:23;98304.72;;;5.19;100.00
73103;BME280;61294;65.988;29.172;2022-09-27T02:35:51;98304.72;;;5.21;99.77
73103;BME280;61294;65.988;29.172;2022-09-27T02:38:17;98282.69;;;4.97;99.91
73103;BME280;61294;65.988;29.172;2022-09-27T02:40:45;98307.31;;;5.17;99.91
73103;BME280;61294;65.988;29.172;2022-09-27T02:43:13;98281.94;;;5.07;99.83
73103;BME280;61294;65.988;29.172;2022-09-27T02:51:59;98309.03;;;5.18;99.93
73103;BME280;61294;65.988;29.172;2022-09-27T03:00:06;98309.97;;;5.24;99.76
73103;BME280;61294;65.988;29.172;2022-09-27T03:03:01;98322.13;;;5.20;100.00
73103;BME280;61294;65.988;29.172;2022-09-27T03:05:38;98318.63;;;5.18;99.89
73103;BME280;61294;65.988;29.172;2022-09-27T03:08:06;98319.47;;;5.17;99.75
73103;BME280;61294;65.988;29.172;2022-09-27T03:10:32;98322.09;;;5.18;99.88
73103;BME280;61294;65.988;29.172;2022-09-27T03:12:58;98316.03;;;5.21;99.98
73103;BME280;61294;65.988;29.172;2022-09-27T03:15:24;98331.69;;;5.18;100.00
73103;BME280;61294;65.988;29.172;2022-09-27T03:17:50;98328.22;;;5.21;99.63
73103;BME280;61294;65.988;29.172;2022-09-27T03:20:16;98319.44;;;5.12;99.95
73103;BME280;61294;65.988;29.172;2022-09-27T03:22:42;98320.31;;;5.14;99.93
73103;BME280;61294;65.988;29.172;2022-09-27T03:25:08;98306.22;;;5.01;100.00
73103;BME280;61294;65.988;29.172;2022-09-27T03:27:34;98330.81;;;5.17;100.00
73103;BME280;61294;65.988;29.172;2022-09-27T03:29:59;98327.25;;;5.12;100.00
73103;BME280;61294;65.988;29.172;2022-09-27T03:32:26;98337.78;;;5.20;100.00
73103;BME280;61294;65.988;29.172;2022-09-27T03:34:51;98340.38;;;5.20;99.75
73103;BME280;61294;65.988;29.172;2022-09-27T03:37:20;98342.13;;;5.19;100.00
73103;BME280;61294;65.988;29.172;2022-09-27T03:39:46;98343.91;;;5.21;99.69
73103;BME280;61294;65.988;29.172;2022-09-27T03:42:12;98346.50;;;5.19;99.76
73103;BME280;61294;65.988;29.172;2022-09-27T03:44:37;98346.50;;;5.19;99.83
73103;BME280;61294;65.988;29.172;2022-09-27T03:47:03;98330.72;;;5.13;99.99
73103;BME280;61294;65.988;29.172;2022-09-27T03:49:29;98335.09;;;5.14;99.80
73103;BME280;61294;65.988;29.172;2022-09-27T03:51:57;98309.72;;;4.99;99.71
73103;BME280;61294;65.988;29.172;2022-09-27T03:54:22;98328.06;;;5.07;99.89
73103;BME280;61294;65.988;29.172;2022-09-27T03:56:50;98336.75;;;5.07;100.00
73103;BME280;61294;65.988;29.172;2022-09-27T03:59:16;98313.16;;;4.98;99.97
73103;BME280;61294;65.988;29.172;2022-09-27T04:01:42;98339.31;;;5.03;100.00
73103;BME280;61294;65.988;29.172;2022-09-27T04:04:09;98324.50;;;5.00;100.00
73103;BME280;61294;65.988;29.172;2022-09-27T04:06:35;98332.28;;;4.95;100.00
73103;BME280;61294;65.988;29.172;2022-09-27T04:09:01;98330.44;;;4.88;100.00
73103;BME280;61294;65.988;29.172;2022-09-27T04:11:27;98336.63;;;4.96;100.00
73103;BME280;61294;65.988;29.172;2022-09-27T04:13:53;98341.00;;;4.97;100.00
73103;BME280;61294;65.988;29.172;2022-09-27T04:16:21;98341.88;;;4.98;100.00
73103;BME280;61294;65.988;29.172;2022-09-27T04:18:46;98341.03;;;4.99;100.00
73103;BME280;61294;65.988;29.172;2022-09-27T04:21:12;98334.88;;;4.95;100.00
73103;BME280;61294;65.988;29.172;2022-09-27T04:23:38;98345.34;;;4.97;99.90
73103;BME280;61294;65.988;29.172;2022-09-27T04:26:04;98347.09;;;4.98;99.95
73103;BME280;61294;65.988;29.172;2022-09-27T04:28:30;98346.25;;;4.99;99.76
73103;BME280;61294;65.988;29.172;2022-09-27T04:30:56;98347.09;;;4.98;99.99
73103;BME280;61294;65.988;29.172;2022-09-27T04:33:22;98347.97;;;5.00;99.96
73103;BME280;61294;65.988;29.172;2022-09-27T04:35:48;98346.28;;;5.00;99.92
73103;BME280;61294;65.988;29.172;2022-09-27T04:38:33;98343.56;;;4.96;99.61
73103;BME280;61294;65.988;29.172;2022-09-27T04:40:58;98319.97;;;4.85;99.52
73103;BME280;61294;65.988;29.172;2022-09-27T04:43:27;98340.97;;;4.96;99.67
73103;BME280;61294;65.988;29.172;2022-09-27T04:45:53;98327.03;;;4.92;100.00
73103;BME280;61294;65.988;29.172;2022-09-27T04:48:19;98334.88;;;4.94;99.75
73103;BME280;61294;65.988;29.172;2022-09-27T04:50:45;98327.84;;;4.90;99.32
73103;BME280;61294;65.988;29.172;2022-09-27T04:53:14;98323.47;;;4.87;99.58
73103;BME280;61294;65.988;29.172;2022-09-27T04:55:46;98336.59;;;4.92;99.32
73103;BME280;61294;65.988;29.172;2022-09-27T04:58:12;98336.59;;;4.93;99.34
73103;BME280;61294;65.988;29.172;2022-09-27T05:00:39;98326.19;;;4.95;99.31
73103;BME280;61294;65.988;29.172;2022-09-27T05:03:05;98320.13;;;4.97;99.18
73103;BME280;61294;65.988;29.172;2022-09-27T05:05:31;98326.19;;;4.95;98.95
73103;BME280;61294;65.988;29.172;2022-09-27T05:07:57;98327.97;;;4.97;99.14
73103;BME280;61294;65.988;29.172;2022-09-27T05:10:23;98330.53;;;4.96;99.29
73103;BME280;61294;65.988;29.172;2022-09-27T05:12:48;98331.50;;;5.03;99.39
73103;BME280;61294;65.988;29.172;2022-09-27T05:15:14;98311.38;;;4.94;98.68
73103;BME280;61294;65.988;29.172;2022-09-27T05:17:40;98325.41;;;5.04;98.64
73103;BME280;61294;65.988;29.172;2022-09-27T05:20:06;98333.28;;;5.08;98.63
73103;BME280;61294;65.988;29.172;2022-09-27T05:22:31;98323.78;;;5.10;98.63
73103;BME280;61294;65.988;29.172;2022-09-27T05:24:57;98337.63;;;5.05;98.33
73103;BME280;61294;65.988;29.172;2022-09-27T05:27:23;98334.16;;;5.07;98.83
73103;BME280;61294;65.988;29.172;2022-09-27T05:29:49;98331.56;;;5.09;98.49
73103;BME280;61294;65.988;29.172;2022-09-27T05:32:15;98328.06;;;5.08;98.23
73103;BME280;61294;65.988;29.172;2022-09-27T05:34:41;98338.53;;;5.10;98.28
73103;BME280;61294;65.988;29.172;2022-09-27T05:37:07;98335.97;;;5.13;98.46
73103;BME280;61294;65.988;29.172;2022-09-27T05:39:32;98342.06;;;5.13;98.19
73103;BME280;61294;65.988;29.172;2022-09-27T05:41:58;98339.44;;;5.12;98.46
73103;BME280;61294;65.988;29.172;2022-09-27T05:44:24;98340.25;;;5.08;98.03
73103;BME280;61294;65.988;29.172;2022-09-27T05:46:50;98325.41;;;5.04;97.90
73103;BME280;61294;65.988;29.172;2022-09-27T05:49:16;98319.19;;;4.92;98.08
73103;BME280;61294;65.988;29.172;2022-09-27T05:51:42;98331.47;;;5.01;98.30
73103;BME280;61294;65.988;29.172;2022-09-27T05:54:08;98345.47;;;5.06;98.14
73103;BME280;61294;65.988;29.172;2022-09-27T05:56:33;98344.56;;;5.04;98.29
73103;BME280;61294;65.988;29.172;2022-09-27T05:58:59;98348.00;;;5.01;97.96
73103;BME280;61294;65.988;29.172;2022-09-27T06:01:25;98317.38;;;4.87;98.22
73103;BME280;61294;65.988;29.172;2022-09-27T06:03:52;98344.50;;;4.98;98.28
73103;BME280;61294;65.988;29.172;2022-09-27T06:06:19;98347.13;;;5.01;98.20
73103;BME280;61294;65.988;29.172;2022-09-27T06:08:47;98347.16;;;5.03;98.55
73103;BME280;61294;65.988;29.172;2022-09-27T06:11:14;98331.41;;;4.96;98.47
73103;BME280;61294;65.988;29.172;2022-09-27T06:13:40;98346.31;;;5.05;98.37
73103;BME280;61294;65.988;29.172;2022-09-27T06:16:07;98327.03;;;4.94;98.39
73103;BME280;61294;65.988;29.172;2022-09-27T06:18:35;98327.03;;;4.92;98.54
73103;BME280;61294;65.988;29.172;2022-09-27T06:21:02;98334.88;;;4.95;98.67
73103;BME280;61294;65.988;29.172;2022-09-27T06:23:29;98338.34;;;4.96;98.46
73103;BME280;61294;65.988;29.172;2022-09-27T06:26:03;98340.94;;;4.93;98.80
73103;BME280;61294;65.988;29.172;2022-09-27T06:28:31;98345.47;;;5.05;98.80
73103;BME280;61294;65.988;29.172;2022-09-27T06:30:57;98347.13;;;5.01;99.17
73103;BME280;61294;65.988;29.172;2022-09-27T06:33:25;98357.56;;;4.99;98.80
73103;BME280;61294;65.988;29.172;2022-09-27T06:35:52;98350.56;;;4.98;99.11
73103;BME280;61294;65.988;29.172;2022-09-27T06:38:19;98347.03;;;4.92;99.38
73103;BME280;61294;65.988;29.172;2022-09-27T06:40:47;98327.81;;;4.87;99.30
73103;BME280;61294;65.988;29.172;2022-09-27T06:43:15;98354.94;;;4.99;99.38
73103;BME280;61294;65.988;29.172;2022-09-27T06:45:42;98345.34;;;4.97;99.49
73103;BME280;61294;65.988;29.172;2022-09-27T06:48:09;98360.19;;;5.03;99.46
73103;BME280;61294;65.988;29.172;2022-09-27T06:50:38;98372.44;;;5.05;99.38
73103;BME280;61294;65.988;29.172;2022-09-27T06:53:05;98356.75;;;5.05;99.07
73103;BME280;61294;65.988;29.172;2022-09-27T06:55:31;98365.50;;;5.09;99.76
73103;BME280;61294;65.988;29.172;2022-09-27T06:57:58;98366.38;;;5.09;99.38
73103;BME280;61294;65.988;29.172;2022-09-27T07:00:43;98361.06;;;5.01;99.39
73103;BME280;61294;65.988;29.172;2022-09-27T07:03:11;98347.97;;;4.98;99.59
73103;BME280;61294;65.988;29.172;2022-09-27T07:05:39;98361.94;;;5.00;99.50
73103;BME280;61294;65.988;29.172;2022-09-27T07:08:11;98355.94;;;5.08;99.39
73103;BME280;61294;65.988;29.172;2022-09-27T07:10:38;98363.78;;;5.11;99.24
73103;BME280;61294;65.988;29.172;2022-09-27T07:13:06;98371.66;;;5.14;99.17
73103;BME280;61294;65.988;29.172;2022-09-27T07:15:36;98373.41;;;5.13;99.47
73103;BME280;61294;65.988;29.172;2022-09-27T07:18:05;98369.13;;;5.20;99.59
73103;BME280;61294;65.988;29.172;2022-09-27T07:20:32;98365.66;;;5.21;99.28
73103;BME280;61294;65.988;29.172;2022-09-27T07:23:01;98366.50;;;5.20;99.37
73103;BME280;61294;65.988;29.172;2022-09-27T07:25:27;98375.31;;;5.28;99.16
73103;BME280;61294;65.988;29.172;2022-09-27T07:27:53;98384.06;;;5.32;99.25
73103;BME280;61294;65.988;29.172;2022-09-27T07:30:19;98381.44;;;5.30;99.18
73103;BME280;61294;65.988;29.172;2022-09-27T07:32:46;98369.25;;;5.31;99.12
73103;BME280;61294;65.988;29.172;2022-09-27T07:35:12;98376.31;;;5.38;99.01
73103;BME280;61294;65.988;29.172;2022-09-27T07:37:40;98381.59;;;5.44;98.71
73103;BME280;61294;65.988;29.172;2022-09-27T07:40:07;98384.28;;;5.49;98.79
73103;BME280;61294;65.988;29.172;2022-09-27T07:42:36;98384.28;;;5.49;98.59
73103;BME280;61294;65.988;29.172;2022-09-27T07:45:07;98381.69;;;5.52;98.79
73103;BME280;61294;65.988;29.172;2022-09-27T07:47:33;98388.69;;;5.55;98.75
73103;BME280;61294;65.988;29.172;2022-09-27T07:50:03;98380.84;;;5.53;98.52
73103;BME280;61294;65.988;29.172;2022-09-27T07:52:29;98387.94;;;5.66;98.00
73103;BME280;61294;65.988;29.172;2022-09-27T07:54:55;98386.28;;;5.75;98.24
73103;BME280;61294;65.988;29.172;2022-09-27T07:57:21;98366.16;;;5.64;97.91
73103;BME280;61294;65.988;29.172;2022-09-27T07:59:48;98358.06;;;5.44;97.37
73103;BME280;61294;65.988;29.172;2022-09-27T08:02:15;98368.50;;;5.41;97.34
73103;BME280;61294;65.988;29.172;2022-09-27T08:04:42;98396.56;;;5.58;97.61
73103;BME280;61294;65.988;29.172;2022-09-27T08:07:09;98365.06;;;5.45;97.53
73103;BME280;61294;65.988;29.172;2022-09-27T08:09:35;98402.66;;;5.58;97.65
73103;BME280;61294;65.988;29.172;2022-09-27T08:12:01;98386.88;;;5.47;97.04
73103;BME280;61294;65.988;29.172;2022-09-27T08:14:29;98360.56;;;5.30;97.25
73103;BME280;61294;65.988;29.172;2022-09-27T08:16:54;98393.69;;;5.34;96.95
73103;BME280;61294;65.988;29.172;2022-09-27T08:19:20;98398.94;;;5.38;97.28
73103;BME280;61294;65.988;29.172;2022-09-27T08:21:46;98403.22;;;5.31;97.68
73103;BME280;61294;65.988;29.172;2022-09-27T08:24:12;98397.84;;;5.20;97.12
73103;BME280;61294;65.988;29.172;2022-09-27T08:26:38;98399.63;;;5.24;97.65
73103;BME280;61294;65.988;29.172;2022-09-27T08:29:04;98398.75;;;5.21;97.61
73103;BME280;61294;65.988;29.172;2022-09-27T08:31:30;98399.66;;;5.26;97.49
73103;BME280;61294;65.988;29.172;2022-09-27T08:33:56;98395.31;;;5.26;97.75
73103;BME280;61294;65.988;29.172;2022-09-27T08:36:22;98410.25;;;5.36;97.54
73103;BME280;61294;65.988;29.172;2022-09-27T08:38:51;98408.50;;;5.37;97.60
73103;BME280;61294;65.988;29.172;2022-09-27T08:46:56;98409.47;;;5.45;97.73
73103;BME280;61294;65.988;29.172;2022-09-27T08:50:14;98418.03;;;5.33;97.25
73103;BME280;61294;65.988;29.172;2022-09-27T08:52:58;98412.88;;;5.38;97.67
73103;BME280;61294;65.988;29.172;2022-09-27T08:58:08;98391.88;;;5.29;97.78
73103;BME280;61294;65.988;29.172;2022-09-27T09:00:38;98406.78;;;5.36;97.85
73103;BME280;61294;65.988;29.172;2022-09-27T09:03:04;98417.31;;;5.47;97.47
73103;BME280;61294;65.988;29.172;2022-09-27T09:05:32;98417.34;;;5.48;97.35
73103;BME280;61294;65.988;29.172;2022-09-27T09:08:41;98420.00;;;5.51;97.25
73103;BME280;61294;65.988;29.172;2022-09-27T09:14:07;98413.19;;;5.64;96.93
73103;BME280;61294;65.988;29.172;2022-09-27T09:23:03;98421.31;;;5.92;96.49
73103;BME280;61294;65.988;29.172;2022-09-27T09:33:53;98412.53;;;5.87;95.45
73103;BME280;61294;65.988;29.172;2022-09-27T09:36:23;98401.97;;;5.73;95.39
73103;BME280;61294;65.988;29.172;2022-09-27T09:39:14;98398.41;;;5.66;95.28
73103;BME280;61294;65.988;29.172;2022-09-27T09:42:01;98417.59;;;5.70;95.75
73103;BME280;61294;65.988;29.172;2022-09-27T09:44:38;98416.63;;;5.60;95.54
73103;BME280;61294;65.988;29.172;2022-09-27T09:47:14;98413.94;;;5.56;95.76
73103;BME280;61294;65.988;29.172;2022-09-27T09:49:46;98431.38;;;5.57;95.88
73103;BME280;61294;65.988;29.172;2022-09-27T09:52:18;98432.25;;;5.57;95.53
73103;BME280;61294;65.988;29.172;2022-09-27T09:55:25;98420.91;;;5.53;95.30
73103;BME280;61294;65.988;29.172;2022-09-27T10:00:37;98414.13;;;5.71;95.96
73103;BME280;61294;65.988;29.172;2022-09-27T10:03:03;98438.69;;;5.88;95.47
73103;BME280;61294;65.988;29.172;2022-09-27T10:05:29;98430.16;;;6.02;94.95
73103;BME280;61294;65.988;29.172;2022-09-27T10:08:01;98424.06;;;6.01;94.79
73103;BME280;61294;65.988;29.172;2022-09-27T10:10:28;98431.22;;;6.24;94.80
73103;BME280;61294;65.988;29.172;2022-09-27T10:12:55;98425.06;;;6.14;94.54
73103;BME280;61294;65.988;29.172;2022-09-27T10:15:23;98425.91;;;6.12;94.27
73103;BME280;61294;65.988;29.172;2022-09-27T10:17:53;98434.72;;;6.23;94.16
73103;BME280;61294;65.988;29.172;2022-09-27T10:23:13;98430.00;;;5.91;93.48
73103;BME280;61294;65.988;29.172;2022-09-27T10:25:48;98440.69;;;6.11;93.70
73103;BME280;61294;65.988;29.172;2022-09-27T10:31:01;98446.94;;;6.24;93.20
73103;BME280;61294;65.988;29.172;2022-09-27T10:33:28;98435.53;;;6.14;93.42
73103;BME280;61294;65.988;29.172;2022-09-27T10:35:56;98457.31;;;6.15;93.52
73103;BME280;61294;65.988;29.172;2022-09-27T10:38:26;98430.03;;;5.93;92.92
73103;BME280;61294;65.988;29.172;2022-09-27T10:40:54;98445.84;;;5.99;93.24
73103;BME280;61294;65.988;29.172;2022-09-27T10:43:32;98458.91;;;6.00;93.04
73103;BME280;61294;65.988;29.172;2022-09-27T10:48:33;98459.53;;;5.79;92.92
73103;BME280;61294;65.988;29.172;2022-09-27T10:51:00;98445.53;;;5.76;93.96
73103;BME280;61294;65.988;29.172;2022-09-27T10:53:28;98449.94;;;5.81;93.55
73103;BME280;61294;65.988;29.172;2022-09-27T10:55:55;98450.75;;;5.74;93.58
73103;BME280;61294;65.988;29.172;2022-09-27T10:58:30;98460.47;;;5.86;93.52
73103;BME280;61294;65.988;29.172;2022-09-27T11:01:02;98462.19;;;5.84;93.18
73103;BME280;61294;65.988;29.172;2022-09-27T11:03:35;98462.25;;;5.90;93.36
73103;BME280;61294;65.988;29.172;2022-09-27T11:06:30;98445.66;;;5.86;93.42
73103;BME280;61294;65.988;29.172;2022-09-27T11:09:13;98449.44;;;6.10;93.57
73103;BME280;61294;65.988;29.172;2022-09-27T11:11:40;98438.06;;;6.07;92.87
73103;BME280;61294;65.988;29.172;2022-09-27T11:14:22;98452.22;;;6.29;92.80
73103;BME280;61294;65.988;29.172;2022-09-27T11:17:23;98438.97;;;6.10;93.16
73103;BME280;61294;65.988;29.172;2022-09-27T11:20:08;98444.19;;;6.07;92.96
73103;BME280;61294;65.988;29.172;2022-09-27T11:22:50;98455.53;;;6.12;92.92
73103;BME280;61294;65.988;29.172;2022-09-27T11:28:46;98465.00;;;6.01;92.72
73103;BME280;61294;65.988;29.172;2022-09-27T11:31:42;98455.28;;;5.91;93.06
73103;BME280;61294;65.988;29.172;2022-09-27T11:42:39;98446.47;;;5.81;93.36
73103;BME280;61294;65.988;29.172;2022-09-27T11:45:23;98453.28;;;5.68;93.47
73103;BME280;61294;65.988;29.172;2022-09-27T11:50:53;98461.91;;;5.61;94.50
73103;BME280;61294;65.988;29.172;2022-09-27T11:56:34;98464.69;;;5.75;94.40
73103;BME280;61294;65.988;29.172;2022-09-27T11:59:35;98452.44;;;5.67;94.23
73103;BME280;61294;65.988;29.172;2022-09-27T12:10:22;98447.03;;;5.53;94.70
73103;BME280;61294;65.988;29.172;2022-09-27T12:12:54;98455.84;;;5.62;94.63
73103;BME280;61294;65.988;29.172;2022-09-27T12:15:31;98434.81;;;5.52;94.69
73103;BME280;61294;65.988;29.172;2022-09-27T12:18:13;98445.44;;;5.68;94.41
73103;BME280;61294;65.988;29.172;2022-09-27T12:20:42;98464.78;;;5.84;94.06
73103;BME280;61294;65.988;29.172;2022-09-27T12:23:28;98449.13;;;5.87;93.89
73103;BME280;61294;65.988;29.172;2022-09-27T12:26:03;98446.53;;;5.87;93.97
73103;BME280;61294;65.988;29.172;2022-09-27T12:31:16;98437.97;;;5.99;93.31
73103;BME280;61294;65.988;29.172;2022-09-27T12:33:50;98447.66;;;6.09;92.74
73103;BME280;61294;65.988;29.172;2022-09-27T12:36:20;98445.88;;;6.05;93.16
73103;BME280;61294;65.988;29.172;2022-09-27T12:39:18;98456.47;;;6.17;92.58
73103;BME280;61294;65.988;29.172;2022-09-27T12:41:58;98456.72;;;6.47;91.86
73103;BME280;61294;65.988;29.172;2022-09-27T12:44:36;98456.94;;;6.71;91.08
73103;BME280;61294;65.988;29.172;2022-09-27T12:50:16;98462.72;;;6.32;90.65
73103;BME280;61294;65.988;29.172;2022-09-27T12:52:50;98445.09;;;6.12;91.51
73103;BME280;61294;65.988;29.172;2022-09-27T13:01:30;98442.78;;;5.63;92.72
73103;BME280;61294;65.988;29.172;2022-09-27T13:05:25;98460.25;;;5.66;93.18
73103;BME280;61294;65.988;29.172;2022-09-27T13:07:22;98461.06;;;5.60;93.69
73103;BME280;61294;65.988;29.172;2022-09-27T13:12:51;98473.19;;;5.57;94.10
73103;BME280;61294;65.988;29.172;2022-09-27T13:17:57;98474.03;;;5.54;93.71
73103;BME280;61294;65.988;29.172;2022-09-27T13:22:57;98473.91;;;5.45;93.64
73103;BME280;61294;65.988;29.172;2022-09-27T13:25:49;98474.53;;;5.27;93.58
73103;BME280;61294;65.988;29.172;2022-09-27T13:33:44;98472.91;;;5.35;93.11
73103;BME280;61294;65.988;29.172;2022-09-27T13:36:31;98472.16;;;5.45;93.17
73103;BME280;61294;65.988;29.172;2022-09-27T13:41:57;98493.03;;;5.41;93.10
73103;BME280;61294;65.988;29.172;2022-09-27T13:47:30;98486.19;;;5.52;92.98
73103;BME280;61294;65.988;29.172;2022-09-27T13:51:05;98479.22;;;5.51;92.85
73103;BME280;61294;65.988;29.172;2022-09-27T13:53:05;98479.16;;;5.45;92.53
73103;BME280;61294;65.988;29.172;2022-09-27T14:00:57;98487.06;;;5.52;92.36
73103;BME280;61294;65.988;29.172;2022-09-27T14:03:25;98472.19;;;5.47;92.25
73103;BME280;61294;65.988;29.172;2022-09-27T14:05:58;98480.06;;;5.50;92.02
73103;BME280;61294;65.988;29.172;2022-09-27T14:08:35;98483.69;;;5.63;91.85
73103;BME280;61294;65.988;29.172;2022-09-27T14:11:04;98488.91;;;5.60;91.77
73103;BME280;61294;65.988;29.172;2022-09-27T14:13:37;98485.41;;;5.58;91.48
73103;BME280;61294;65.988;29.172;2022-09-27T14:16:04;98484.44;;;5.52;91.72
73103;BME280;61294;65.988;29.172;2022-09-27T14:18:32;98480.16;;;5.56;91.50
73103;BME280;61294;65.988;29.172;2022-09-27T14:21:13;98470.50;;;5.49;91.35
73103;BME280;61294;65.988;29.172;2022-09-27T14:23:41;98480.06;;;5.51;91.46
73103;BME280;61294;65.988;29.172;2022-09-27T14:26:40;98478.09;;;5.32;91.54
73103;BME280;61294;65.988;29.172;2022-09-27T14:29:30;98482.59;;;5.42;92.00
73103;BME280;61294;65.988;29.172;2022-09-27T14:32:09;98495.63;;;5.41;91.60
73103;BME280;61294;65.988;29.172;2022-09-27T14:34:36;98500.09;;;5.49;92.42
73103;BME280;61294;65.988;29.172;2022-09-27T14:37:02;98495.75;;;5.51;92.24
73103;BME280;61294;65.988;29.172;2022-09-27T14:39:59;98500.06;;;5.46;91.90
73103;BME280;61294;65.988;29.172;2022-09-27T14:42:32;98502.69;;;5.48;91.84
73103;BME280;61294;65.988;29.172;2022-09-27T14:45:27;98485.25;;;5.47;91.98
73103;BME280;61294;65.988;29.172;2022-09-27T14:47:52;98491.28;;;5.43;91.92
73103;BME280;61294;65.988;29.172;2022-09-27T14:50:22;98501.72;;;5.41;91.90
73103;BME280;61294;65.988;29.172;2022-09-27T14:52:49;98489.44;;;5.34;91.85
73103;BME280;61294;65.988;29.172;2022-09-27T14:55:22;98500.81;;;5.38;91.96
73103;BME280;61294;65.988;29.172;2022-09-27T14:57:52;98485.00;;;5.28;92.01
73103;BME280;61294;65.988;29.172;2022-09-27T15:00:22;98497.28;;;5.35;91.94
73103;BME280;61294;65.988;29.172;2022-09-27T15:02:50;98485.00;;;5.27;91.96
73103;BME280;61294;65.988;29.172;2022-09-27T15:05:25;98498.09;;;5.30;91.59
73103;BME280;61294;65.988;29.172;2022-09-27T15:07:52;98501.50;;;5.24;91.72
73103;BME280;61294;65.988;29.172;2022-09-27T15:10:21;98504.09;;;5.24;92.11
73103;BME280;61294;65.988;29.172;2022-09-27T15:12:50;98502.34;;;5.22;92.17
73103;BME280;61294;65.988;29.172;2022-09-27T15:15:21;98495.25;;;5.14;92.03
73103;BME280;61294;65.988;29.172;2022-09-27T15:17:48;98492.59;;;5.11;92.43
73103;BME280;61294;65.988;29.172;2022-09-27T15:20:26;98483.81;;;5.03;91.90
73103;BME280;61294;65.988;29.172;2022-09-27T15:22:57;98486.47;;;5.08;92.28
73103;BME280;61294;65.988;29.172;2022-09-27T15:25:37;98503.06;;;5.13;91.80
73103;BME280;61294;65.988;29.172;2022-09-27T15:30:38;98514.31;;;5.09;91.71
73103;BME280;61294;65.988;29.172;2022-09-27T15:33:07;98499.50;;;5.05;92.15
73103;BME280;61294;65.988;29.172;2022-09-27T15:35:48;98517.78;;;5.06;92.20
73103;BME280;61294;65.988;29.172;2022-09-27T15:38:22;98510.00;;;5.09;92.48